sensor_id;sensor_type;location;lat;lon;timestamp;pressure;altitude;pressure_sealevel;temperature;humidity
59787;BME280;45672;51.612;5.536;2023-02-17T00:02:01;101790.19;;;9.24;100.00
59787;BME280;45672;51.612;5.536;2023-02-17T00:04:27;101783.19;;;9.23;100.00
59787;BME280;45672;51.612;5.536;2023-02-17T00:06:53;101784.03;;;9.23;100.00
59787;BME280;45672;51.612;5.536;2023-02-17T00:09:18;101791.16;;;9.23;100.00
59787;BME280;45672;51.612;5.536;2023-02-17T00:11:44;101782.22;;;9.24;100.00
59787;BME280;45672;51.612;5.536;2023-02-17T00:14:11;101776.91;;;9.24;100.00
59787;BME280;45672;51.612;5.536;2023-02-17T00:16:37;101774.16;;;9.25;100.00
59787;BME280;45672;51.612;5.536;2023-02-17T00:19:02;101779.56;;;9.24;100.00
59787;BME280;45672;51.612;5.536;2023-02-17T00:21:48;101775.94;;;9.25;100.00
59787;BME280;45672;51.612;5.536;2023-02-17T00:24:14;101772.47;;;9.24;100.00
59787;BME280;45672;51.612;5.536;2023-02-17T00:26:39;101774.25;;;9.24;100.00
59787;BME280;45672;51.612;5.536;2023-02-17T00:29:04;101769.78;;;9.24;100.00
59787;BME280;45672;51.612;5.536;2023-02-17T00:31:30;101766.53;;;9.21;100.00
59787;BME280;45672;51.612;5.536;2023-02-17T00:33:55;101767.97;;;9.25;100.00
59787;BME280;45672;51.612;5.536;2023-02-17T00:36:20;101761.84;;;9.24;100.00
59787;BME280;45672;51.612;5.536;2023-02-17T00:38:47;101762.41;;;9.28;100.00
59787;BME280;45672;51.612;5.536;2023-02-17T00:41:12;101765.56;;;9.33;100.00
59787;BME280;45672;51.612;5.536;2023-02-17T00:43:38;101766.50;;;9.32;100.00
59787;BME280;45672;51.612;5.536;2023-02-17T00:46:03;101749.75;;;9.31;100.00
59787;BME280;45672;51.612;5.536;2023-02-17T00:48:29;101759.41;;;9.32;100.00
59787;BME280;45672;51.612;5.536;2023-02-17T00:50:55;101753.09;;;9.34;100.00
59787;BME280;45672;51.612;5.536;2023-02-17T00:53:21;101747.91;;;9.32;100.00
59787;BME280;45672;51.612;5.536;2023-02-17T00:55:46;101751.31;;;9.34;100.00
59787;BME280;45672;51.612;5.536;2023-02-17T00:58:12;101757.31;;;9.36;100.00
59787;BME280;45672;51.612;5.536;2023-02-17T01:00:37;101756.38;;;9.37;100.00
59787;BME280;45672;51.612;5.536;2023-02-17T01:03:02;101752.63;;;9.40;100.00
59787;BME280;45672;51.612;5.536;2023-02-17T01:05:28;101756.00;;;9.42;100.00
59787;BME280;45672;51.612;5.536;2023-02-17T01:07:54;101758.25;;;9.46;100.00
59787;BME280;45672;51.612;5.536;2023-02-17T01:10:19;101764.06;;;9.52;100.00
59787;BME280;45672;51.612;5.536;2023-02-17T01:12:45;101756.69;;;9.55;100.00
59787;BME280;45672;51.612;5.536;2023-02-17T01:15:10;101756.31;;;9.60;100.00
59787;BME280;45672;51.612;5.536;2023-02-17T01:17:35;101760.66;;;9.61;100.00
59787;BME280;45672;51.612;5.536;2023-02-17T01:20:01;101753.38;;;9.63;100.00
59787;BME280;45672;51.612;5.536;2023-02-17T01:22:26;101746.38;;;9.62;100.00
59787;BME280;45672;51.612;5.536;2023-02-17T01:24:52;101750.47;;;9.66;100.00
59787;BME280;45672;51.612;5.536;2023-02-17T01:27:17;101757.34;;;9.69;100.00
59787;BME280;45672;51.612;5.536;2023-02-17T01:29:44;101750.09;;;9.71;100.00
59787;BME280;45672;51.612;5.536;2023-02-17T01:32:10;101750.09;;;9.71;100.00
59787;BME280;45672;51.612;5.536;2023-02-17T01:34:36;101743.94;;;9.70;100.00
59787;BME280;45672;51.612;5.536;2023-02-17T01:37:01;101742.84;;;9.73;100.00
59787;BME280;45672;51.612;5.536;2023-02-17T01:39:26;101740.06;;;9.74;100.00
59787;BME280;45672;51.612;5.536;2023-02-17T01:41:52;101746.22;;;9.75;100.00
59787;BME280;45672;51.612;5.536;2023-02-17T01:44:22;101745.38;;;9.74;100.00
59787;BME280;45672;51.612;5.536;2023-02-17T01:46:52;101750.69;;;9.74;100.00
59787;BME280;45672;51.612;5.536;2023-02-17T01:49:28;101736.44;;;9.75;100.00
59787;BME280;45672;51.612;5.536;2023-02-17T01:54:34;101739.09;;;9.75;100.00
59787;BME280;45672;51.612;5.536;2023-02-17T01:57:00;101735.56;;;9.75;100.00
59787;BME280;45672;51.612;5.536;2023-02-17T01:59:27;101743.56;;;9.75;100.00
59787;BME280;45672;51.612;5.536;2023-02-17T02:01:57;101752.38;;;9.75;100.00
59787;BME280;45672;51.612;5.536;2023-02-17T02:04:25;101753.09;;;9.77;100.00
59787;BME280;45672;51.612;5.536;2023-02-17T02:06:52;101755.75;;;9.77;100.00
59787;BME280;45672;51.612;5.536;2023-02-17T02:09:26;101754.78;;;9.78;100.00
59787;BME280;45672;51.612;5.536;2023-02-17T02:11:54;101747.63;;;9.79;100.00
59787;BME280;45672;51.612;5.536;2023-02-17T02:14:20;101757.56;;;9.77;100.00
59787;BME280;45672;51.612;5.536;2023-02-17T02:19:38;101747.78;;;9.77;100.00
59787;BME280;45672;51.612;5.536;2023-02-17T02:22:39;101742.59;;;9.76;100.00
59787;BME280;45672;51.612;5.536;2023-02-17T02:28:08;101732.91;;;9.75;100.00
59787;BME280;45672;51.612;5.536;2023-02-17T02:50:58;101677.91;;;9.65;100.00
59787;BME280;45672;51.612;5.536;2023-02-17T02:56:25;101664.75;;;9.64;100.00
59787;BME280;45672;51.612;5.536;2023-02-17T02:59:07;101671.03;;;9.63;100.00
59787;BME280;45672;51.612;5.536;2023-02-17T03:05:04;101662.22;;;9.62;100.00
59787;BME280;45672;51.612;5.536;2023-02-17T03:07:49;101665.00;;;9.61;100.00
59787;BME280;45672;51.612;5.536;2023-02-17T03:10:19;101669.44;;;9.60;100.00
59787;BME280;45672;51.612;5.536;2023-02-17T03:12:44;101663.31;;;9.60;100.00
59787;BME280;45672;51.612;5.536;2023-02-17T03:15:18;101662.56;;;9.58;100.00
59787;BME280;45672;51.612;5.536;2023-02-17T03:17:47;101665.09;;;9.59;100.00
59787;BME280;45672;51.612;5.536;2023-02-17T03:20:13;101668.63;;;9.60;100.00
59787;BME280;45672;51.612;5.536;2023-02-17T03:22:42;101663.31;;;9.60;100.00
59787;BME280;45672;51.612;5.536;2023-02-17T03:25:08;101663.31;;;9.60;100.00
59787;BME280;45672;51.612;5.536;2023-02-17T03:27:34;101683.59;;;9.61;100.00
59787;BME280;45672;51.612;5.536;2023-02-17T03:29:59;101659.34;;;9.54;100.00
59787;BME280;45672;51.612;5.536;2023-02-17T03:32:24;101663.19;;;9.61;100.00
59787;BME280;45672;51.612;5.536;2023-02-17T03:34:50;101664.88;;;9.62;100.00
59787;BME280;45672;51.612;5.536;2023-02-17T03:37:15;101662.22;;;9.62;100.00
59787;BME280;45672;51.612;5.536;2023-02-17T03:39:41;101660.38;;;9.63;100.00
59787;BME280;45672;51.612;5.536;2023-02-17T03:42:06;101654.25;;;9.62;100.00
59787;BME280;45672;51.612;5.536;2023-02-17T03:44:32;101660.25;;;9.64;100.00
59787;BME280;45672;51.612;5.536;2023-02-17T03:46:57;101661.09;;;9.65;100.00
59787;BME280;45672;51.612;5.536;2023-02-17T03:49:22;101658.44;;;9.65;100.00
59787;BME280;45672;51.612;5.536;2023-02-17T03:51:47;101650.38;;;9.66;100.00
59787;BME280;45672;51.612;5.536;2023-02-17T03:54:13;101641.41;;;9.68;100.00
59787;BME280;45672;51.612;5.536;2023-02-17T03:56:38;101647.69;;;9.66;100.00
59787;BME280;45672;51.612;5.536;2023-02-17T03:59:03;101652.03;;;9.68;100.00
59787;BME280;45672;51.612;5.536;2023-02-17T04:01:29;101653.03;;;9.66;100.00
59787;BME280;45672;51.612;5.536;2023-02-17T04:03:55;101663.66;;;9.66;100.00
59787;BME280;45672;51.612;5.536;2023-02-17T04:06:20;101663.66;;;9.66;100.00
59787;BME280;45672;51.612;5.536;2023-02-17T04:08:46;101658.19;;;9.68;100.00
59787;BME280;45672;51.612;5.536;2023-02-17T04:11:11;101664.22;;;9.70;100.00
59787;BME280;45672;51.612;5.536;2023-02-17T04:13:37;101674.00;;;9.70;100.00
59787;BME280;45672;51.612;5.536;2023-02-17T04:16:03;101657.22;;;9.69;100.00
59787;BME280;45672;51.612;5.536;2023-02-17T04:18:29;101653.13;;;9.65;100.00
59787;BME280;45672;51.612;5.536;2023-02-17T04:20:55;101655.41;;;9.70;100.00
59787;BME280;45672;51.612;5.536;2023-02-17T04:23:20;101652.63;;;9.71;100.00
59787;BME280;45672;51.612;5.536;2023-02-17T04:25:46;101652.03;;;9.68;100.00
59787;BME280;45672;51.612;5.536;2023-02-17T04:28:13;101664.94;;;9.72;100.00
59787;BME280;45672;51.612;5.536;2023-02-17T04:30:42;101672.06;;;9.72;100.00
59787;BME280;45672;51.612;5.536;2023-02-17T04:33:08;101652.50;;;9.73;100.00
59787;BME280;45672;51.612;5.536;2023-02-17T04:35:33;101651.66;;;9.72;100.00
59787;BME280;45672;51.612;5.536;2023-02-17T04:37:58;101660.59;;;9.71;100.00
59787;BME280;45672;51.612;5.536;2023-02-17T04:40:23;101670.25;;;9.72;100.00
59787;BME280;45672;51.612;5.536;2023-02-17T04:42:49;101679.06;;;9.73;100.00
59787;BME280;45672;51.612;5.536;2023-02-17T04:45:14;101660.59;;;9.71;100.00
59787;BME280;45672;51.612;5.536;2023-02-17T04:47:40;101669.25;;;9.73;100.00
59787;BME280;45672;51.612;5.536;2023-02-17T04:50:08;101664.81;;;9.74;100.00
59787;BME280;45672;51.612;5.536;2023-02-17T04:52:34;101665.66;;;9.74;100.00
59787;BME280;45672;51.612;5.536;2023-02-17T04:54:59;101663.94;;;9.73;100.00
59787;BME280;45672;51.612;5.536;2023-02-17T04:57:25;101661.16;;;9.75;100.00
59787;BME280;45672;51.612;5.536;2023-02-17T04:59:50;101660.34;;;9.74;100.00
59787;BME280;45672;51.612;5.536;2023-02-17T05:02:15;101656.84;;;9.74;100.00
59787;BME280;45672;51.612;5.536;2023-02-17T05:04:41;101640.16;;;9.72;100.00
59787;BME280;45672;51.612;5.536;2023-02-17T05:07:06;101647.03;;;9.74;100.00
59787;BME280;45672;51.612;5.536;2023-02-17T05:09:31;101644.38;;;9.74;100.00
59787;BME280;45672;51.612;5.536;2023-02-17T05:11:56;101652.50;;;9.73;100.00
59787;BME280;45672;51.612;5.536;2023-02-17T05:14:22;101648.28;;;9.70;100.00
59787;BME280;45672;51.612;5.536;2023-02-17T05:16:47;101632.47;;;9.69;100.00
59787;BME280;45672;51.612;5.536;2023-02-17T05:19:12;101621.97;;;9.67;100.00
59787;BME280;45672;51.612;5.536;2023-02-17T05:21:38;101624.75;;;9.65;100.00
59787;BME280;45672;51.612;5.536;2023-02-17T05:24:03;101644.19;;;9.66;100.00
59787;BME280;45672;51.612;5.536;2023-02-17T05:26:29;101644.19;;;9.66;100.00
59787;BME280;45672;51.612;5.536;2023-02-17T05:28:54;101646.84;;;9.66;100.00
59787;BME280;45672;51.612;5.536;2023-02-17T05:31:19;101633.69;;;9.64;100.00
59787;BME280;45672;51.612;5.536;2023-02-17T05:33:45;101644.19;;;9.66;100.00
59787;BME280;45672;51.612;5.536;2023-02-17T05:36:10;101636.94;;;9.68;100.00
59787;BME280;45672;51.612;5.536;2023-02-17T05:38:37;101645.75;;;9.69;100.00
59787;BME280;45672;51.612;5.536;2023-02-17T05:41:03;101645.88;;;9.67;100.00
59787;BME280;45672;51.612;5.536;2023-02-17T05:43:28;101652.88;;;9.68;100.00
59787;BME280;45672;51.612;5.536;2023-02-17T05:45:54;101656.50;;;9.67;100.00
59787;BME280;45672;51.612;5.536;2023-02-17T05:48:19;101667.00;;;9.69;100.00
59787;BME280;45672;51.612;5.536;2023-02-17T05:50:45;101677.63;;;9.69;100.00
59787;BME280;45672;51.612;5.536;2023-02-17T05:53:10;101675.69;;;9.71;100.00
59787;BME280;45672;51.612;5.536;2023-02-17T05:55:35;101669.53;;;9.70;100.00
59787;BME280;45672;51.612;5.536;2023-02-17T05:58:01;101660.59;;;9.71;100.00
59787;BME280;45672;51.612;5.536;2023-02-17T06:00:26;101648.28;;;9.70;100.00
59787;BME280;45672;51.612;5.536;2023-02-17T06:02:52;101637.63;;;9.70;100.00
59787;BME280;45672;51.612;5.536;2023-02-17T06:05:17;101652.63;;;9.71;100.00
59787;BME280;45672;51.612;5.536;2023-02-17T06:07:43;101643.78;;;9.71;100.00
59787;BME280;45672;51.612;5.536;2023-02-17T06:10:08;101633.41;;;9.68;100.00
59787;BME280;45672;51.612;5.536;2023-02-17T06:12:34;101640.97;;;9.62;100.00
59787;BME280;45672;51.612;5.536;2023-02-17T06:15:00;101642.44;;;9.55;100.00
59787;BME280;45672;51.612;5.536;2023-02-17T06:17:25;101642.53;;;9.54;100.00
59787;BME280;45672;51.612;5.536;2023-02-17T06:19:51;101641.72;;;9.53;100.00
59787;BME280;45672;51.612;5.536;2023-02-17T06:22:16;101643.53;;;9.53;100.00
59787;BME280;45672;51.612;5.536;2023-02-17T06:24:41;101638.09;;;9.54;100.00
59787;BME280;45672;51.612;5.536;2023-02-17T06:27:07;101638.94;;;9.55;100.00
59787;BME280;45672;51.612;5.536;2023-02-17T06:29:32;101640.63;;;9.56;100.00
59787;BME280;45672;51.612;5.536;2023-02-17T06:31:58;101638.53;;;9.59;100.00
59787;BME280;45672;51.612;5.536;2023-02-17T06:34:23;101628.63;;;9.61;100.00
59787;BME280;45672;51.612;5.536;2023-02-17T06:36:49;101628.50;;;9.63;100.00
59787;BME280;45672;51.612;5.536;2023-02-17T06:39:14;101623.88;;;9.65;100.00
59787;BME280;45672;51.612;5.536;2023-02-17T06:41:39;101628.09;;;9.68;100.00
59787;BME280;45672;51.612;5.536;2023-02-17T06:44:07;101621.84;;;9.69;100.00
59787;BME280;45672;51.612;5.536;2023-02-17T06:46:32;101620.00;;;9.69;100.00
59787;BME280;45672;51.612;5.536;2023-02-17T06:48:57;101614.44;;;9.72;100.00
59787;BME280;45672;51.612;5.536;2023-02-17T06:51:24;101631.09;;;9.74;100.00
59787;BME280;45672;51.612;5.536;2023-02-17T06:53:49;101631.94;;;9.75;100.00
59787;BME280;45672;51.612;5.536;2023-02-17T06:56:15;101635.44;;;9.75;100.00
59787;BME280;45672;51.612;5.536;2023-02-17T06:58:40;101632.66;;;9.77;100.00
59787;BME280;45672;51.612;5.536;2023-02-17T07:01:05;101637.09;;;9.76;100.00
59787;BME280;45672;51.612;5.536;2023-02-17T07:03:32;101635.19;;;9.78;100.00
59787;BME280;45672;51.612;5.536;2023-02-17T07:05:58;101635.75;;;9.82;100.00
59787;BME280;45672;51.612;5.536;2023-02-17T07:08:24;101640.97;;;9.83;100.00
59787;BME280;45672;51.612;5.536;2023-02-17T07:10:49;101633.69;;;9.86;100.00
59787;BME280;45672;51.612;5.536;2023-02-17T07:13:14;101639.97;;;9.84;100.00
59787;BME280;45672;51.612;5.536;2023-02-17T07:15:40;101634.50;;;9.86;100.00
59787;BME280;45672;51.612;5.536;2023-02-17T07:18:05;101635.25;;;9.88;100.00
59787;BME280;45672;51.612;5.536;2023-02-17T07:20:31;101643.09;;;9.90;100.00
59787;BME280;45672;51.612;5.536;2023-02-17T07:22:58;101635.81;;;9.92;100.00
59787;BME280;45672;51.612;5.536;2023-02-17T07:25:23;101643.50;;;9.95;100.00
59787;BME280;45672;51.612;5.536;2023-02-17T07:27:49;101631.91;;;9.96;100.00
59787;BME280;45672;51.612;5.536;2023-02-17T09:19:23;101690.50;;;11.28;100.00
59787;BME280;45672;51.612;5.536;2023-02-17T09:21:49;101696.81;;;11.27;100.00
59787;BME280;45672;51.612;5.536;2023-02-17T09:24:15;101691.63;;;11.25;100.00
59787;BME280;45672;51.612;5.536;2023-02-17T09:26:41;101713.66;;;11.27;100.00
59787;BME280;45672;51.612;5.536;2023-02-17T09:29:06;101708.19;;;11.29;100.00
59787;BME280;45672;51.612;5.536;2023-02-17T09:31:33;101720.94;;;11.35;100.00
59787;BME280;45672;51.612;5.536;2023-02-17T09:33:59;101699.34;;;11.38;100.00
59787;BME280;45672;51.612;5.536;2023-02-17T09:36:27;101693.72;;;11.41;100.00
59787;BME280;45672;51.612;5.536;2023-02-17T09:38:54;101693.19;;;11.47;100.00
59787;BME280;45672;51.612;5.536;2023-02-17T09:43:51;101696.41;;;11.61;100.00
59787;BME280;45672;51.612;5.536;2023-02-17T09:46:24;101690.94;;;11.62;100.00
59787;BME280;45672;51.612;5.536;2023-02-17T09:48:53;101715.91;;;11.61;100.00
59787;BME280;45672;51.612;5.536;2023-02-17T09:51:54;101709.72;;;11.61;100.00
59787;BME280;45672;51.612;5.536;2023-02-17T09:54:36;101706.53;;;11.57;100.00
59787;BME280;45672;51.612;5.536;2023-02-17T09:57:05;101699.34;;;11.58;100.00
59787;BME280;45672;51.612;5.536;2023-02-17T09:59:35;101702.03;;;11.58;100.00
59787;BME280;45672;51.612;5.536;2023-02-17T10:02:06;101714.91;;;11.62;100.00
59787;BME280;45672;51.612;5.536;2023-02-17T10:04:37;101714.63;;;11.65;100.00
59787;BME280;45672;51.612;5.536;2023-02-17T10:07:11;101708.91;;;11.70;100.00
59787;BME280;45672;51.612;5.536;2023-02-17T10:09:47;101718.00;;;11.77;100.00
59787;BME280;45672;51.612;5.536;2023-02-17T10:12:22;101706.91;;;11.82;100.00
59787;BME280;45672;51.612;5.536;2023-02-17T10:15:10;101707.75;;;11.92;100.00
59787;BME280;45672;51.612;5.536;2023-02-17T10:20:34;101703.38;;;12.20;100.00
59787;BME280;45672;51.612;5.536;2023-02-17T10:23:07;101704.88;;;12.33;99.99
59787;BME280;45672;51.612;5.536;2023-02-17T10:28:45;101705.94;;;12.50;97.22
59787;BME280;45672;51.612;5.536;2023-02-17T10:31:24;101719.19;;;12.41;96.92
59787;BME280;45672;51.612;5.536;2023-02-17T10:36:56;101709.63;;;12.39;97.71
59787;BME280;45672;51.612;5.536;2023-02-17T10:39:54;101716.50;;;12.41;98.40
59787;BME280;45672;51.612;5.536;2023-02-17T10:42:29;101714.66;;;12.42;97.97
59787;BME280;45672;51.612;5.536;2023-02-17T10:45:02;101725.94;;;12.36;97.13
59787;BME280;45672;51.612;5.536;2023-02-17T10:47:28;101731.16;;;12.28;97.73
59787;BME280;45672;51.612;5.536;2023-02-17T10:49:55;101731.31;;;12.16;98.00
59787;BME280;45672;51.612;5.536;2023-02-17T10:52:26;101740.88;;;12.09;98.48
59787;BME280;45672;51.612;5.536;2023-02-17T10:55:00;101744.56;;;11.98;98.91
59787;BME280;45672;51.612;5.536;2023-02-17T10:57:32;101742.28;;;11.94;99.21
59787;BME280;45672;51.612;5.536;2023-02-17T10:59:59;101748.59;;;11.93;100.00
59787;BME280;45672;51.612;5.536;2023-02-17T11:02:57;101752.69;;;11.97;100.00
59787;BME280;45672;51.612;5.536;2023-02-17T11:07:59;101741.31;;;11.95;99.63
59787;BME280;45672;51.612;5.536;2023-02-17T11:10:30;101736.53;;;11.88;100.00
59787;BME280;45672;51.612;5.536;2023-02-17T11:12:58;101741.28;;;11.85;100.00
59787;BME280;45672;51.612;5.536;2023-02-17T11:15:29;101745.94;;;11.83;100.00
59787;BME280;45672;51.612;5.536;2023-02-17T11:17:55;101732.59;;;11.83;100.00
59787;BME280;45672;51.612;5.536;2023-02-17T11:23:21;101712.09;;;11.83;100.00
59787;BME280;45672;51.612;5.536;2023-02-17T11:25:57;101710.84;;;11.87;100.00
59787;BME280;45672;51.612;5.536;2023-02-17T11:28:23;101711.41;;;11.91;100.00
59787;BME280;45672;51.612;5.536;2023-02-17T11:30:53;101713.38;;;11.99;100.00
59787;BME280;45672;51.612;5.536;2023-02-17T11:33:38;101715.19;;;12.08;100.00
59787;BME280;45672;51.612;5.536;2023-02-17T11:36:05;101693.97;;;12.16;99.54
59787;BME280;45672;51.612;5.536;2023-02-17T11:41:01;101694.50;;;12.30;99.15
59787;BME280;45672;51.612;5.536;2023-02-17T11:43:27;101704.59;;;12.36;98.53
59787;BME280;45672;51.612;5.536;2023-02-17T11:46:23;101703.59;;;12.37;98.54
59787;BME280;45672;51.612;5.536;2023-02-17T12:04:49;101723.72;;;12.21;99.28
59787;BME280;45672;51.612;5.536;2023-02-17T12:10:12;101718.56;;;12.10;99.84
59787;BME280;45672;51.612;5.536;2023-02-17T12:13:00;101716.47;;;12.04;100.00
59787;BME280;45672;51.612;5.536;2023-02-17T12:15:37;101695.53;;;11.99;100.00
59787;BME280;45672;51.612;5.536;2023-02-17T12:21:10;101719.00;;;12.05;100.00
59787;BME280;45672;51.612;5.536;2023-02-17T12:26:42;101733.03;;;12.07;100.00
59787;BME280;45672;51.612;5.536;2023-02-17T12:32:17;101734.00;;;12.06;100.00
59787;BME280;45672;51.612;5.536;2023-02-17T12:34:59;101728.13;;;12.03;100.00
59787;BME280;45672;51.612;5.536;2023-02-17T12:37:30;101732.47;;;12.04;100.00
59787;BME280;45672;51.612;5.536;2023-02-17T12:40:02;101736.94;;;12.03;100.00
59787;BME280;45672;51.612;5.536;2023-02-17T12:42:40;101736.13;;;12.03;100.00
59787;BME280;45672;51.612;5.536;2023-02-17T12:45:17;101734.13;;;12.05;100.00
59787;BME280;45672;51.612;5.536;2023-02-17T12:47:52;101747.47;;;12.05;100.00
59787;BME280;45672;51.612;5.536;2023-02-17T12:52:56;101754.38;;;12.07;100.00
59787;BME280;45672;51.612;5.536;2023-02-17T12:55:44;101762.94;;;12.11;100.00
59787;BME280;45672;51.612;5.536;2023-02-17T12:58:31;101765.59;;;12.11;100.00
59787;BME280;45672;51.612;5.536;2023-02-17T13:01:03;101785.25;;;12.10;100.00
59787;BME280;45672;51.612;5.536;2023-02-17T13:03:34;101789.88;;;12.08;100.00
59787;BME280;45672;51.612;5.536;2023-02-17T13:06:25;101769.53;;;12.07;100.00
59787;BME280;45672;51.612;5.536;2023-02-17T13:09:28;101768.66;;;12.06;100.00
59787;BME280;45672;51.612;5.536;2023-02-17T13:12:53;101771.47;;;12.05;100.00
59787;BME280;45672;51.612;5.536;2023-02-17T13:15:03;101768.00;;;12.04;100.00
59787;BME280;45672;51.612;5.536;2023-02-17T13:17:31;101780.75;;;12.11;100.00
59787;BME280;45672;51.612;5.536;2023-02-17T13:22:39;101778.38;;;12.07;100.00
59787;BME280;45672;51.612;5.536;2023-02-17T13:25:05;101777.53;;;12.07;100.00
59787;BME280;45672;51.612;5.536;2023-02-17T13:27:36;101801.84;;;12.04;100.00
59787;BME280;45672;51.612;5.536;2023-02-17T13:32:32;101804.22;;;11.97;100.00
59787;BME280;45672;51.612;5.536;2023-02-17T13:35:02;101811.34;;;11.97;100.00
59787;BME280;45672;51.612;5.536;2023-02-17T13:42:46;101803.88;;;11.90;100.00
59787;BME280;45672;51.612;5.536;2023-02-17T13:47:42;101817.09;;;11.92;100.00
59787;BME280;45672;51.612;5.536;2023-02-17T13:50:44;101813.59;;;11.92;100.00
59787;BME280;45672;51.612;5.536;2023-02-17T13:53:42;101810.19;;;11.89;100.00
59787;BME280;45672;51.612;5.536;2023-02-17T13:56:33;101818.34;;;11.88;100.00
59787;BME280;45672;51.612;5.536;2023-02-17T13:59:07;101829.00;;;11.88;100.00
59787;BME280;45672;51.612;5.536;2023-02-17T14:01:35;101832.09;;;11.83;100.00
59787;BME280;45672;51.612;5.536;2023-02-17T14:04:01;101822.00;;;11.87;100.00
59787;BME280;45672;51.612;5.536;2023-02-17T14:06:37;101826.47;;;11.86;100.00
59787;BME280;45672;51.612;5.536;2023-02-17T14:09:31;101811.50;;;11.85;100.00
59787;BME280;45672;51.612;5.536;2023-02-17T14:11:59;101823.13;;;11.84;100.00
59787;BME280;45672;51.612;5.536;2023-02-17T14:14:35;101831.13;;;11.84;100.00
59787;BME280;45672;51.612;5.536;2023-02-17T14:19:27;101832.09;;;11.83;100.00
59787;BME280;45672;51.612;5.536;2023-02-17T14:24:26;101827.88;;;11.81;100.00
59787;BME280;45672;51.612;5.536;2023-02-17T14:26:56;101834.75;;;11.83;100.00
59787;BME280;45672;51.612;5.536;2023-02-17T14:29:23;101828.19;;;11.87;100.00
59787;BME280;45672;51.612;5.536;2023-02-17T14:31:50;101834.78;;;11.93;100.00
59787;BME280;45672;51.612;5.536;2023-02-17T14:36:44;101820.06;;;11.99;100.00
59787;BME280;45672;51.612;5.536;2023-02-17T14:39:13;101796.75;;;12.01;100.00
59787;BME280;45672;51.612;5.536;2023-02-17T14:41:38;101794.94;;;12.01;100.00
59787;BME280;45672;51.612;5.536;2023-02-17T14:44:04;101793.41;;;11.99;100.00
59787;BME280;45672;51.612;5.536;2023-02-17T14:46:30;101800.69;;;11.97;100.00
59787;BME280;45672;51.612;5.536;2023-02-17T14:48:55;101814.75;;;11.99;100.00
59787;BME280;45672;51.612;5.536;2023-02-17T14:51:22;101835.09;;;12.00;100.00
59787;BME280;45672;51.612;5.536;2023-02-17T14:53:49;101822.03;;;11.97;100.00
59787;BME280;45672;51.612;5.536;2023-02-17T14:58:49;101821.28;;;11.85;100.00
59787;BME280;45672;51.612;5.536;2023-02-17T15:01:17;101843.50;;;11.95;100.00
59787;BME280;45672;51.612;5.536;2023-02-17T15:03:43;101841.84;;;11.94;100.00
59787;BME280;45672;51.612;5.536;2023-02-17T15:06:16;101829.44;;;11.93;100.00
59787;BME280;45672;51.612;5.536;2023-02-17T15:08:43;101832.41;;;11.90;100.00
59787;BME280;45672;51.612;5.536;2023-02-17T15:11:39;101838.31;;;11.94;100.00
59787;BME280;45672;51.612;5.536;2023-02-17T15:14:09;101834.78;;;11.93;100.00
59787;BME280;45672;51.612;5.536;2023-02-17T15:16:36;101831.28;;;11.93;100.00
59787;BME280;45672;51.612;5.536;2023-02-17T15:19:02;101841.09;;;11.92;100.00
59787;BME280;45672;51.612;5.536;2023-02-17T15:21:30;101837.44;;;11.93;100.00
59787;BME280;45672;51.612;5.536;2023-02-17T15:23:59;101846.31;;;11.94;100.00
59787;BME280;45672;51.612;5.536;2023-02-17T15:26:26;101856.84;;;11.95;100.00
59787;BME280;45672;51.612;5.536;2023-02-17T15:28:51;101849.69;;;11.96;100.00
59787;BME280;45672;51.612;5.536;2023-02-17T15:31:17;101860.22;;;11.97;100.00
59787;BME280;45672;51.612;5.536;2023-02-17T15:33:54;101855.44;;;12.01;100.00
59787;BME280;45672;51.612;5.536;2023-02-17T15:36:21;101857.97;;;12.02;100.00
59787;BME280;45672;51.612;5.536;2023-02-17T15:38:46;101851.66;;;12.03;100.00
59787;BME280;45672;51.612;5.536;2023-02-17T15:41:26;101855.19;;;12.04;100.00
59787;BME280;45672;51.612;5.536;2023-02-17T15:43:53;101846.31;;;12.03;100.00
59787;BME280;45672;51.612;5.536;2023-02-17T15:46:22;101841.28;;;12.00;100.00
59787;BME280;45672;51.612;5.536;2023-02-17T15:48:50;101855.44;;;12.01;100.00
59787;BME280;45672;51.612;5.536;2023-02-17T15:51:17;101851.25;;;11.98;100.00
59787;BME280;45672;51.612;5.536;2023-02-17T15:53:47;101854.88;;;11.97;100.00
59787;BME280;45672;51.612;5.536;2023-02-17T15:56:22;101863.03;;;11.96;100.00
59787;BME280;45672;51.612;5.536;2023-02-17T15:58:48;101862.41;;;11.92;100.00
59787;BME280;45672;51.612;5.536;2023-02-17T16:01:23;101878.41;;;11.92;100.00
59787;BME280;45672;51.612;5.536;2023-02-17T16:03:51;101877.88;;;11.88;100.00
59787;BME280;45672;51.612;5.536;2023-02-17T16:06:16;101876.31;;;11.86;100.00
59787;BME280;45672;51.612;5.536;2023-02-17T16:08:41;101880.81;;;11.85;100.00
59787;BME280;45672;51.612;5.536;2023-02-17T16:11:11;101872.94;;;11.84;100.00
59787;BME280;45672;51.612;5.536;2023-02-17T16:13:36;101878.25;;;11.84;100.00
59787;BME280;45672;51.612;5.536;2023-02-17T16:16:02;101883.75;;;11.82;100.00
59787;BME280;45672;51.612;5.536;2023-02-17T16:18:27;101893.56;;;11.82;100.00
59787;BME280;45672;51.612;5.536;2023-02-17T16:20:52;101896.09;;;11.83;100.00
59787;BME280;45672;51.612;5.536;2023-02-17T16:23:18;101908.75;;;11.81;100.00
59787;BME280;45672;51.612;5.536;2023-02-17T16:25:44;101898.47;;;11.77;100.00
59787;BME280;45672;51.612;5.536;2023-02-17T16:28:19;101909.56;;;11.82;100.00
59787;BME280;45672;51.612;5.536;2023-02-17T16:30:45;101910.81;;;11.78;100.00
59787;BME280;45672;51.612;5.536;2023-02-17T16:33:16;101915.72;;;11.72;100.00